sensor_id;sensor_type;location;lat;lon;timestamp;pressure;altitude;pressure_sealevel;temperature;humidity
2675;BME280;1347;42.122;24.746;2022-11-15T00:02:06;100293.59;;;7.38;100.00
2675;BME280;1347;42.122;24.746;2022-11-15T00:04:32;100298.56;;;7.36;100.00
2675;BME280;1347;42.122;24.746;2022-11-15T00:07:01;100297.66;;;7.32;100.00
2675;BME280;1347;42.122;24.746;2022-11-15T00:09:28;100296.69;;;7.28;100.00
2675;BME280;1347;42.122;24.746;2022-11-15T00:11:54;100299.78;;;7.18;100.00
2675;BME280;1347;42.122;24.746;2022-11-15T00:14:21;100304.22;;;7.23;100.00
2675;BME280;1347;42.122;24.746;2022-11-15T00:16:48;100300.53;;;7.27;100.00
2675;BME280;1347;42.122;24.746;2022-11-15T00:19:15;100300.25;;;7.20;100.00
2675;BME280;1347;42.122;24.746;2022-11-15T00:21:42;100307.19;;;7.09;100.00
2675;BME280;1347;42.122;24.746;2022-11-15T00:24:10;100308.03;;;7.01;100.00
2675;BME280;1347;42.122;24.746;2022-11-15T00:26:37;100304.84;;;6.99;100.00
2675;BME280;1347;42.122;24.746;2022-11-15T00:29:04;100303.41;;;6.93;100.00
2675;BME280;1347;42.122;24.746;2022-11-15T00:31:31;100293.81;;;6.87;100.00
2675;BME280;1347;42.122;24.746;2022-11-15T00:33:58;100290.31;;;6.78;100.00
2675;BME280;1347;42.122;24.746;2022-11-15T00:36:25;100288.22;;;6.75;100.00
2675;BME280;1347;42.122;24.746;2022-11-15T00:38:52;100295.28;;;6.76;100.00
2675;BME280;1347;42.122;24.746;2022-11-15T00:41:20;100297.16;;;6.84;100.00
2675;BME280;1347;42.122;24.746;2022-11-15T00:43:47;100292.84;;;6.83;100.00
2675;BME280;1347;42.122;24.746;2022-11-15T00:46:14;100297.53;;;6.74;100.00
2675;BME280;1347;42.122;24.746;2022-11-15T00:48:40;100283.78;;;6.61;100.00
2675;BME280;1347;42.122;24.746;2022-11-15T00:51:07;100286.03;;;6.59;100.00
2675;BME280;1347;42.122;24.746;2022-11-15T00:53:34;100281.72;;;6.58;100.00
2675;BME280;1347;42.122;24.746;2022-11-15T00:56:01;100286.34;;;6.58;100.00
2675;BME280;1347;42.122;24.746;2022-11-15T00:58:30;100279.13;;;6.53;100.00
2675;BME280;1347;42.122;24.746;2022-11-15T01:01:05;100274.97;;;6.56;100.00
2675;BME280;1347;42.122;24.746;2022-11-15T01:03:32;100278.34;;;6.61;100.00
2675;BME280;1347;42.122;24.746;2022-11-15T01:06:00;100277.53;;;6.70;100.00
2675;BME280;1347;42.122;24.746;2022-11-15T01:08:27;100280.53;;;6.77;100.00
2675;BME280;1347;42.122;24.746;2022-11-15T01:10:54;100275.69;;;6.82;100.00
2675;BME280;1347;42.122;24.746;2022-11-15T01:13:20;100281.28;;;6.94;100.00
2675;BME280;1347;42.122;24.746;2022-11-15T01:15:49;100274.56;;;6.92;100.00
2675;BME280;1347;42.122;24.746;2022-11-15T01:18:16;100274.84;;;6.99;100.00
2675;BME280;1347;42.122;24.746;2022-11-15T01:20:43;100276.56;;;7.12;100.00
2675;BME280;1347;42.122;24.746;2022-11-15T01:23:10;100268.38;;;7.12;100.00
2675;BME280;1347;42.122;24.746;2022-11-15T01:25:37;100265.78;;;7.16;100.00
2675;BME280;1347;42.122;24.746;2022-11-15T01:28:04;100264.00;;;7.20;100.00
2675;BME280;1347;42.122;24.746;2022-11-15T01:30:31;100263.34;;;7.23;100.00
2675;BME280;1347;42.122;24.746;2022-11-15T01:32:59;100263.81;;;7.25;100.00
2675;BME280;1347;42.122;24.746;2022-11-15T01:35:26;100258.19;;;7.30;100.00
2675;BME280;1347;42.122;24.746;2022-11-15T01:37:53;100262.47;;;7.39;100.00
2675;BME280;1347;42.122;24.746;2022-11-15T01:40:20;100264.72;;;7.37;100.00
2675;BME280;1347;42.122;24.746;2022-11-15T01:42:47;100251.66;;;7.43;100.00
2675;BME280;1347;42.122;24.746;2022-11-15T01:45:15;100257.59;;;7.45;100.00
2675;BME280;1347;42.122;24.746;2022-11-15T01:47:45;100258.28;;;7.42;100.00
2675;BME280;1347;42.122;24.746;2022-11-15T01:50:19;100258.28;;;7.42;100.00
2675;BME280;1347;42.122;24.746;2022-11-15T01:52:46;100253.91;;;7.50;100.00
2675;BME280;1347;42.122;24.746;2022-11-15T01:55:16;100253.28;;;7.44;100.00
2675;BME280;1347;42.122;24.746;2022-11-15T01:57:47;100248.28;;;7.46;100.00
2675;BME280;1347;42.122;24.746;2022-11-15T02:00:16;100258.59;;;7.41;100.00
2675;BME280;1347;42.122;24.746;2022-11-15T02:02:43;100261.88;;;7.25;100.00
2675;BME280;1347;42.122;24.746;2022-11-15T02:05:10;100258.88;;;7.18;100.00
2675;BME280;1347;42.122;24.746;2022-11-15T02:07:39;100252.81;;;7.13;100.00
2675;BME280;1347;42.122;24.746;2022-11-15T02:10:09;100251.59;;;7.01;100.00
2675;BME280;1347;42.122;24.746;2022-11-15T02:12:36;100254.78;;;7.03;100.00
2675;BME280;1347;42.122;24.746;2022-11-15T02:15:05;100253.97;;;7.03;100.00
2675;BME280;1347;42.122;24.746;2022-11-15T02:17:45;100248.25;;;6.96;100.00
2675;BME280;1347;42.122;24.746;2022-11-15T02:20:34;100248.88;;;7.01;100.00
2675;BME280;1347;42.122;24.746;2022-11-15T02:23:27;100245.03;;;6.94;100.00
2675;BME280;1347;42.122;24.746;2022-11-15T02:26:16;100246.28;;;7.05;100.00
2675;BME280;1347;42.122;24.746;2022-11-15T02:28:55;100245.47;;;7.05;100.00
2675;BME280;1347;42.122;24.746;2022-11-15T02:31:28;100251.88;;;7.09;100.00
2675;BME280;1347;42.122;24.746;2022-11-15T02:34:04;100244.13;;;7.19;100.00
2675;BME280;1347;42.122;24.746;2022-11-15T02:36:40;100240.38;;;7.32;100.00
2675;BME280;1347;42.122;24.746;2022-11-15T02:39:17;100245.63;;;7.37;100.00
2675;BME280;1347;42.122;24.746;2022-11-15T02:41:51;100246.56;;;7.42;100.00
2675;BME280;1347;42.122;24.746;2022-11-15T02:44:23;100244.75;;;7.46;100.00
2675;BME280;1347;42.122;24.746;2022-11-15T02:46:54;100250.03;;;7.51;100.00
2675;BME280;1347;42.122;24.746;2022-11-15T02:49:46;100245.66;;;7.58;100.00
2675;BME280;1347;42.122;24.746;2022-11-15T02:52:15;100239.97;;;7.63;100.00
2675;BME280;1347;42.122;24.746;2022-11-15T02:54:52;100247.41;;;7.63;100.00
2675;BME280;1347;42.122;24.746;2022-11-15T02:57:26;100240.53;;;7.57;100.00
2675;BME280;1347;42.122;24.746;2022-11-15T03:00:06;100235.59;;;7.50;100.00
2675;BME280;1347;42.122;24.746;2022-11-15T03:02:54;100230.53;;;7.40;100.00
2675;BME280;1347;42.122;24.746;2022-11-15T03:05:28;100230.91;;;7.30;100.00
2675;BME280;1347;42.122;24.746;2022-11-15T03:08:02;100234.94;;;7.24;100.00
2675;BME280;1347;42.122;24.746;2022-11-15T03:10:39;100234.81;;;7.20;100.00
2675;BME280;1347;42.122;24.746;2022-11-15T03:13:17;100233.06;;;7.16;100.00
2675;BME280;1347;42.122;24.746;2022-11-15T03:15:53;100238.84;;;7.14;100.00
2675;BME280;1347;42.122;24.746;2022-11-15T03:18:32;100234.19;;;7.15;100.00
2675;BME280;1347;42.122;24.746;2022-11-15T03:21:04;100243.19;;;7.15;100.00
2675;BME280;1347;42.122;24.746;2022-11-15T03:23:34;100231.47;;;7.15;100.00
2675;BME280;1347;42.122;24.746;2022-11-15T03:26:06;100241.28;;;7.07;100.00
2675;BME280;1347;42.122;24.746;2022-11-15T03:28:37;100229.41;;;7.12;100.00
2675;BME280;1347;42.122;24.746;2022-11-15T03:31:05;100230.03;;;7.17;100.00
2675;BME280;1347;42.122;24.746;2022-11-15T03:33:56;100223.28;;;7.15;100.00
2675;BME280;1347;42.122;24.746;2022-11-15T03:36:25;100225.38;;;7.18;100.00
2675;BME280;1347;42.122;24.746;2022-11-15T03:38:54;100220.34;;;7.28;100.00
2675;BME280;1347;42.122;24.746;2022-11-15T03:41:26;100222.19;;;7.36;100.00
2675;BME280;1347;42.122;24.746;2022-11-15T03:43:59;100224.13;;;7.36;100.00
2675;BME280;1347;42.122;24.746;2022-11-15T03:46:33;100219.88;;;7.47;100.00
2675;BME280;1347;42.122;24.746;2022-11-15T03:49:08;100219.72;;;7.52;100.00
2675;BME280;1347;42.122;24.746;2022-11-15T03:51:37;100213.63;;;7.47;100.00
2675;BME280;1347;42.122;24.746;2022-11-15T03:54:04;100212.72;;;7.43;100.00
2675;BME280;1347;42.122;24.746;2022-11-15T03:56:31;100206.00;;;7.40;100.00
2675;BME280;1347;42.122;24.746;2022-11-15T03:58:58;100199.78;;;7.31;100.00
2675;BME280;1347;42.122;24.746;2022-11-15T04:01:25;100198.19;;;7.30;100.00
2675;BME280;1347;42.122;24.746;2022-11-15T04:03:52;100201.19;;;7.37;100.00
2675;BME280;1347;42.122;24.746;2022-11-15T04:06:20;100203.31;;;7.31;100.00
2675;BME280;1347;42.122;24.746;2022-11-15T04:08:47;100196.69;;;7.41;100.00
2675;BME280;1347;42.122;24.746;2022-11-15T04:11:14;100197.25;;;7.47;100.00
2675;BME280;1347;42.122;24.746;2022-11-15T04:13:40;100193.16;;;7.41;100.00
2675;BME280;1347;42.122;24.746;2022-11-15T04:16:07;100196.69;;;7.41;100.00
2675;BME280;1347;42.122;24.746;2022-11-15T04:18:34;100191.00;;;7.46;100.00
2675;BME280;1347;42.122;24.746;2022-11-15T04:21:01;100175.69;;;7.54;100.00
2675;BME280;1347;42.122;24.746;2022-11-15T04:23:47;100176.56;;;7.46;100.00
2675;BME280;1347;42.122;24.746;2022-11-15T04:26:31;100178.19;;;7.47;100.00
2675;BME280;1347;42.122;24.746;2022-11-15T04:28:58;100186.75;;;7.36;100.00
2675;BME280;1347;42.122;24.746;2022-11-15T04:31:42;100183.84;;;7.42;100.00
2675;BME280;1347;42.122;24.746;2022-11-15T04:34:09;100181.63;;;7.35;100.00
2675;BME280;1347;42.122;24.746;2022-11-15T04:36:36;100172.25;;;7.45;100.00
2675;BME280;1347;42.122;24.746;2022-11-15T04:39:22;100178.97;;;7.47;100.00
2675;BME280;1347;42.122;24.746;2022-11-15T04:41:49;100181.56;;;7.44;100.00
2675;BME280;1347;42.122;24.746;2022-11-15T04:44:15;100183.88;;;7.33;100.00
2675;BME280;1347;42.122;24.746;2022-11-15T04:46:43;100186.41;;;7.38;100.00
2675;BME280;1347;42.122;24.746;2022-11-15T04:49:09;100184.97;;;7.41;100.00
2675;BME280;1347;42.122;24.746;2022-11-15T04:51:36;100177.69;;;7.45;100.00
2675;BME280;1347;42.122;24.746;2022-11-15T04:54:03;100175.66;;;7.42;100.00
2675;BME280;1347;42.122;24.746;2022-11-15T04:56:32;100188.56;;;7.32;100.00
2675;BME280;1347;42.122;24.746;2022-11-15T04:58:59;100177.25;;;7.43;100.00
2675;BME280;1347;42.122;24.746;2022-11-15T05:01:26;100171.66;;;7.39;100.00
2675;BME280;1347;42.122;24.746;2022-11-15T05:03:52;100175.66;;;7.42;100.00
2675;BME280;1347;42.122;24.746;2022-11-15T05:06:39;100179.91;;;7.51;100.00
2675;BME280;1347;42.122;24.746;2022-11-15T05:09:06;100178.97;;;7.47;100.00
2675;BME280;1347;42.122;24.746;2022-11-15T05:11:35;100179.03;;;7.38;100.00
2675;BME280;1347;42.122;24.746;2022-11-15T05:14:02;100177.75;;;7.36;100.00
2675;BME280;1347;42.122;24.746;2022-11-15T05:16:29;100167.13;;;7.43;100.00
2675;BME280;1347;42.122;24.746;2022-11-15T05:18:56;100184.03;;;7.36;100.00
2675;BME280;1347;42.122;24.746;2022-11-15T05:21:23;100176.84;;;7.32;100.00
2675;BME280;1347;42.122;24.746;2022-11-15T05:23:49;100177.03;;;7.27;100.00
2675;BME280;1347;42.122;24.746;2022-11-15T05:26:17;100184.41;;;7.26;100.00
2675;BME280;1347;42.122;24.746;2022-11-15T05:28:46;100185.53;;;7.25;100.00
2675;BME280;1347;42.122;24.746;2022-11-15T05:31:15;100181.91;;;7.21;100.00
2675;BME280;1347;42.122;24.746;2022-11-15T05:33:43;100177.09;;;7.18;100.00
2675;BME280;1347;42.122;24.746;2022-11-15T05:36:15;100173.88;;;7.16;100.00
2675;BME280;1347;42.122;24.746;2022-11-15T05:38:43;100175.09;;;7.27;100.00
2675;BME280;1347;42.122;24.746;2022-11-15T05:41:10;100183.28;;;7.27;100.00
2675;BME280;1347;42.122;24.746;2022-11-15T05:43:39;100181.50;;;7.31;100.00
2675;BME280;1347;42.122;24.746;2022-11-15T05:46:09;100187.22;;;7.38;100.00
2675;BME280;1347;42.122;24.746;2022-11-15T05:48:37;100180.81;;;7.34;100.00
2675;BME280;1347;42.122;24.746;2022-11-15T05:51:07;100189.16;;;7.38;100.00
2675;BME280;1347;42.122;24.746;2022-11-15T05:53:35;100186.81;;;7.49;100.00
2675;BME280;1347;42.122;24.746;2022-11-15T05:56:04;100194.47;;;7.55;100.00
2675;BME280;1347;42.122;24.746;2022-11-15T05:58:32;100192.53;;;7.56;100.00
2675;BME280;1347;42.122;24.746;2022-11-15T06:00:59;100208.91;;;7.56;100.00
2675;BME280;1347;42.122;24.746;2022-11-15T06:03:28;100198.53;;;7.70;100.00
2675;BME280;1347;42.122;24.746;2022-11-15T06:05:56;100196.31;;;7.63;99.81
2675;BME280;1347;42.122;24.746;2022-11-15T06:08:23;100200.53;;;7.61;100.00
2675;BME280;1347;42.122;24.746;2022-11-15T06:10:50;100203.38;;;7.64;100.00
2675;BME280;1347;42.122;24.746;2022-11-15T06:13:17;100206.59;;;7.66;100.00
2675;BME280;1347;42.122;24.746;2022-11-15T06:15:44;100203.19;;;7.69;100.00
2675;BME280;1347;42.122;24.746;2022-11-15T06:18:10;100205.66;;;7.62;99.72
2675;BME280;1347;42.122;24.746;2022-11-15T06:20:39;100203.59;;;7.59;100.00
2675;BME280;1347;42.122;24.746;2022-11-15T06:23:06;100211.25;;;7.66;100.00
2675;BME280;1347;42.122;24.746;2022-11-15T06:25:32;100209.47;;;7.70;98.68
2675;BME280;1347;42.122;24.746;2022-11-15T06:27:59;100210.59;;;7.69;98.73
2675;BME280;1347;42.122;24.746;2022-11-15T06:30:26;100212.19;;;7.70;98.56
2675;BME280;1347;42.122;24.746;2022-11-15T06:32:59;100211.84;;;7.51;99.48
2675;BME280;1347;42.122;24.746;2022-11-15T06:35:27;100211.56;;;7.44;100.00
2675;BME280;1347;42.122;24.746;2022-11-15T06:38:02;100210.00;;;7.43;100.00
2675;BME280;1347;42.122;24.746;2022-11-15T06:40:29;100203.13;;;7.36;100.00
2675;BME280;1347;42.122;24.746;2022-11-15T06:42:59;100205.72;;;7.54;100.00
2675;BME280;1347;42.122;24.746;2022-11-15T06:45:26;100204.13;;;7.73;99.58
2675;BME280;1347;42.122;24.746;2022-11-15T06:47:53;100205.06;;;7.78;99.08
2675;BME280;1347;42.122;24.746;2022-11-15T06:50:20;100209.50;;;8.03;98.51
2675;BME280;1347;42.122;24.746;2022-11-15T06:52:47;100211.84;;;8.25;97.10
2675;BME280;1347;42.122;24.746;2022-11-15T06:55:15;100212.31;;;8.27;95.65
2675;BME280;1347;42.122;24.746;2022-11-15T06:57:49;100211.44;;;8.35;95.87
2675;BME280;1347;42.122;24.746;2022-11-15T07:00:18;100211.50;;;8.60;94.65
2675;BME280;1347;42.122;24.746;2022-11-15T07:02:46;100212.44;;;9.00;93.18
2675;BME280;1347;42.122;24.746;2022-11-15T07:05:14;100210.06;;;9.35;91.73
2675;BME280;1347;42.122;24.746;2022-11-15T07:07:41;100209.53;;;9.57;90.38
2675;BME280;1347;42.122;24.746;2022-11-15T07:10:09;100203.66;;;9.83;89.42
2675;BME280;1347;42.122;24.746;2022-11-15T07:12:37;100197.69;;;10.21;88.60
2675;BME280;1347;42.122;24.746;2022-11-15T07:15:05;100198.72;;;10.60;87.21
2675;BME280;1347;42.122;24.746;2022-11-15T07:17:32;100196.34;;;10.90;85.21
2675;BME280;1347;42.122;24.746;2022-11-15T07:19:59;100192.69;;;11.18;82.54
2675;BME280;1347;42.122;24.746;2022-11-15T07:22:26;100198.72;;;11.58;81.80
2675;BME280;1347;42.122;24.746;2022-11-15T07:24:53;100196.94;;;12.04;79.22
2675;BME280;1347;42.122;24.746;2022-11-15T07:27:20;100193.53;;;12.53;77.94
2675;BME280;1347;42.122;24.746;2022-11-15T07:29:48;100199.84;;;13.25;76.30
2675;BME280;1347;42.122;24.746;2022-11-15T07:32:15;100190.78;;;14.48;71.93
2675;BME280;1347;42.122;24.746;2022-11-15T07:34:42;100202.16;;;16.14;67.42
2675;BME280;1347;42.122;24.746;2022-11-15T07:37:11;100205.00;;;17.78;60.18
2675;BME280;1347;42.122;24.746;2022-11-15T07:39:38;100193.91;;;19.09;56.65
2675;BME280;1347;42.122;24.746;2022-11-15T07:42:05;100195.63;;;20.39;53.73
2675;BME280;1347;42.122;24.746;2022-11-15T07:44:50;100197.81;;;21.72;50.17
2675;BME280;1347;42.122;24.746;2022-11-15T07:47:17;100192.94;;;22.51;46.43
2675;BME280;1347;42.122;24.746;2022-11-15T07:49:44;100196.13;;;23.79;43.75
2675;BME280;1347;42.122;24.746;2022-11-15T07:52:12;100199.94;;;24.78;40.79
2675;BME280;1347;42.122;24.746;2022-11-15T07:54:39;100187.41;;;25.42;39.23
2675;BME280;1347;42.122;24.746;2022-11-15T07:57:06;100184.59;;;24.95;39.82
2675;BME280;1347;42.122;24.746;2022-11-15T07:59:34;100188.06;;;24.74;38.58
2675;BME280;1347;42.122;24.746;2022-11-15T08:02:03;100185.53;;;24.12;39.37
2675;BME280;1347;42.122;24.746;2022-11-15T08:04:30;100188.31;;;24.00;40.04
2675;BME280;1347;42.122;24.746;2022-11-15T08:06:57;100184.81;;;24.75;38.89
2675;BME280;1347;42.122;24.746;2022-11-15T08:09:24;100189.19;;;25.71;38.26
2675;BME280;1347;42.122;24.746;2022-11-15T08:11:51;100179.38;;;26.19;36.38
2675;BME280;1347;42.122;24.746;2022-11-15T08:14:17;100178.50;;;25.78;37.14
2675;BME280;1347;42.122;24.746;2022-11-15T08:16:46;100177.66;;;25.34;38.18
2675;BME280;1347;42.122;24.746;2022-11-15T08:19:15;100181.94;;;26.04;37.77
2675;BME280;1347;42.122;24.746;2022-11-15T08:21:42;100176.28;;;26.26;35.85
2675;BME280;1347;42.122;24.746;2022-11-15T08:24:10;100173.78;;;25.75;36.71
2675;BME280;1347;42.122;24.746;2022-11-15T08:26:37;100166.84;;;25.11;37.54
2675;BME280;1347;42.122;24.746;2022-11-15T08:29:05;100165.66;;;24.36;38.38
2675;BME280;1347;42.122;24.746;2022-11-15T08:31:32;100169.63;;;25.11;37.48
2675;BME280;1347;42.122;24.746;2022-11-15T08:34:00;100172.09;;;25.09;38.99
2675;BME280;1347;42.122;24.746;2022-11-15T08:36:29;100160.47;;;24.98;37.83
2675;BME280;1347;42.122;24.746;2022-11-15T08:38:56;100166.00;;;24.38;38.68
2675;BME280;1347;42.122;24.746;2022-11-15T08:41:25;100165.63;;;23.69;39.85
2675;BME280;1347;42.122;24.746;2022-11-15T08:43:53;100162.31;;;22.80;40.71
2675;BME280;1347;42.122;24.746;2022-11-15T08:46:20;100160.25;;;22.16;42.82
2675;BME280;1347;42.122;24.746;2022-11-15T08:48:47;100158.50;;;21.43;43.17
2675;BME280;1347;42.122;24.746;2022-11-15T08:51:14;100155.16;;;21.51;42.67
2675;BME280;1347;42.122;24.746;2022-11-15T08:53:42;100154.19;;;21.18;44.18
2675;BME280;1347;42.122;24.746;2022-11-15T08:56:10;100147.44;;;21.16;45.43
2675;BME280;1347;42.122;24.746;2022-11-15T08:58:38;100140.47;;;21.04;45.81
2675;BME280;1347;42.122;24.746;2022-11-15T09:01:05;100131.50;;;20.70;46.11
2675;BME280;1347;42.122;24.746;2022-11-15T09:03:32;100128.59;;;20.53;46.44
2675;BME280;1347;42.122;24.746;2022-11-15T09:06:00;100124.78;;;20.44;47.48
2675;BME280;1347;42.122;24.746;2022-11-15T09:08:30;100119.25;;;20.40;47.51
2675;BME280;1347;42.122;24.746;2022-11-15T09:10:58;100119.88;;;20.25;46.83
2675;BME280;1347;42.122;24.746;2022-11-15T09:13:29;100109.91;;;19.66;48.37
2675;BME280;1347;42.122;24.746;2022-11-15T09:15:57;100106.78;;;19.95;48.59
2675;BME280;1347;42.122;24.746;2022-11-15T09:18:24;100106.66;;;20.02;48.86
2675;BME280;1347;42.122;24.746;2022-11-15T09:20:51;100102.16;;;21.08;47.94
2675;BME280;1347;42.122;24.746;2022-11-15T09:23:22;100098.78;;;21.40;46.99
2675;BME280;1347;42.122;24.746;2022-11-15T09:25:49;100092.34;;;21.63;46.33
2675;BME280;1347;42.122;24.746;2022-11-15T09:28:17;100088.78;;;22.18;44.39
2675;BME280;1347;42.122;24.746;2022-11-15T09:30:44;100072.09;;;22.31;44.35
2675;BME280;1347;42.122;24.746;2022-11-15T09:33:12;100078.41;;;21.63;44.78
2675;BME280;1347;42.122;24.746;2022-11-15T09:35:39;100079.72;;;21.94;44.98
2675;BME280;1347;42.122;24.746;2022-11-15T09:38:06;100071.84;;;22.25;45.01
2675;BME280;1347;42.122;24.746;2022-11-15T09:40:36;100068.59;;;22.11;45.02
2675;BME280;1347;42.122;24.746;2022-11-15T09:43:23;100063.59;;;22.99;43.64
2675;BME280;1347;42.122;24.746;2022-11-15T09:46:02;100053.22;;;22.67;44.07
2675;BME280;1347;42.122;24.746;2022-11-15T09:48:48;100056.22;;;21.92;44.66
2675;BME280;1347;42.122;24.746;2022-11-15T09:51:24;100055.91;;;21.34;46.56
2675;BME280;1347;42.122;24.746;2022-11-15T09:53:57;100055.13;;;20.67;47.39
2675;BME280;1347;42.122;24.746;2022-11-15T09:56:27;100052.84;;;20.12;49.35
2675;BME280;1347;42.122;24.746;2022-11-15T09:59:04;100046.28;;;19.38;49.75
2675;BME280;1347;42.122;24.746;2022-11-15T10:01:42;100036.91;;;19.25;50.11
2675;BME280;1347;42.122;24.746;2022-11-15T10:04:11;100033.72;;;18.48;51.87
2675;BME280;1347;42.122;24.746;2022-11-15T10:06:42;100022.78;;;18.30;52.79
2675;BME280;1347;42.122;24.746;2022-11-15T10:09:15;100025.16;;;18.28;53.26
2675;BME280;1347;42.122;24.746;2022-11-15T10:11:43;100017.00;;;18.07;53.97
2675;BME280;1347;42.122;24.746;2022-11-15T10:14:14;100015.97;;;17.90;53.59
2675;BME280;1347;42.122;24.746;2022-11-15T10:17:06;100010.53;;;17.69;53.34
2675;BME280;1347;42.122;24.746;2022-11-15T10:19:41;100012.66;;;17.40;55.20
2675;BME280;1347;42.122;24.746;2022-11-15T10:22:24;100007.28;;;16.90;55.16
2675;BME280;1347;42.122;24.746;2022-11-15T10:25:00;100004.97;;;16.49;57.14
2675;BME280;1347;42.122;24.746;2022-11-15T10:27:33;100010.13;;;16.47;57.33
2675;BME280;1347;42.122;24.746;2022-11-15T10:30:06;100007.34;;;16.51;58.77
2675;BME280;1347;42.122;24.746;2022-11-15T10:32:36;99997.84;;;16.59;57.31
2675;BME280;1347;42.122;24.746;2022-11-15T10:35:19;99993.50;;;16.65;57.45
2675;BME280;1347;42.122;24.746;2022-11-15T10:37:47;99990.69;;;16.83;57.88
2675;BME280;1347;42.122;24.746;2022-11-15T10:40:20;99995.88;;;16.70;56.75
2675;BME280;1347;42.122;24.746;2022-11-15T10:42:47;99982.03;;;16.56;56.87
2675;BME280;1347;42.122;24.746;2022-11-15T10:45:25;99971.78;;;15.89;58.84
2675;BME280;1347;42.122;24.746;2022-11-15T10:47:53;99974.53;;;15.68;59.79
2675;BME280;1347;42.122;24.746;2022-11-15T10:50:29;99965.88;;;15.76;59.81
2675;BME280;1347;42.122;24.746;2022-11-15T10:52:58;99964.28;;;15.65;60.15
2675;BME280;1347;42.122;24.746;2022-11-15T10:55:28;99959.03;;;15.31;60.86
2675;BME280;1347;42.122;24.746;2022-11-15T10:58:02;99965.72;;;15.23;61.44
2675;BME280;1347;42.122;24.746;2022-11-15T11:00:34;99952.69;;;15.20;61.57
2675;BME280;1347;42.122;24.746;2022-11-15T11:03:03;99942.84;;;15.23;61.26
2675;BME280;1347;42.122;24.746;2022-11-15T11:05:34;99946.41;;;15.30;60.78
2675;BME280;1347;42.122;24.746;2022-11-15T11:08:04;99937.78;;;15.53;61.42
2675;BME280;1347;42.122;24.746;2022-11-15T11:10:31;99936.63;;;15.68;61.15
2675;BME280;1347;42.122;24.746;2022-11-15T11:13:13;99930.72;;;15.95;60.23
2675;BME280;1347;42.122;24.746;2022-11-15T11:15:44;99936.25;;;16.02;59.80
2675;BME280;1347;42.122;24.746;2022-11-15T11:18:17;99929.94;;;16.15;59.46
2675;BME280;1347;42.122;24.746;2022-11-15T11:20:51;99922.03;;;15.78;59.13
2675;BME280;1347;42.122;24.746;2022-11-15T11:23:38;99918.88;;;15.69;59.75
2675;BME280;1347;42.122;24.746;2022-11-15T11:26:18;99919.69;;;15.77;60.00
2675;BME280;1347;42.122;24.746;2022-11-15T11:28:56;99905.47;;;15.75;60.90
2675;BME280;1347;42.122;24.746;2022-11-15T11:31:34;99905.44;;;15.71;60.81
2675;BME280;1347;42.122;24.746;2022-11-15T11:34:12;99901.13;;;15.67;60.70
2675;BME280;1347;42.122;24.746;2022-11-15T11:36:47;99894.41;;;15.57;61.20
2675;BME280;1347;42.122;24.746;2022-11-15T11:39:25;99896.66;;;15.13;62.18
2675;BME280;1347;42.122;24.746;2022-11-15T11:42:01;99886.38;;;14.95;62.22
2675;BME280;1347;42.122;24.746;2022-11-15T11:44:46;99886.75;;;15.01;62.53
2675;BME280;1347;42.122;24.746;2022-11-15T11:47:22;99883.16;;;14.86;63.60
2675;BME280;1347;42.122;24.746;2022-11-15T11:49:51;99877.63;;;14.83;63.73
2675;BME280;1347;42.122;24.746;2022-11-15T11:52:24;99876.13;;;14.96;63.96
2675;BME280;1347;42.122;24.746;2022-11-15T11:55:02;99877.63;;;14.79;63.76
2675;BME280;1347;42.122;24.746;2022-11-15T11:57:39;99873.97;;;14.50;65.26
2675;BME280;1347;42.122;24.746;2022-11-15T12:00:18;99868.09;;;14.62;65.26
2675;BME280;1347;42.122;24.746;2022-11-15T12:02:54;99866.56;;;14.79;64.58
2675;BME280;1347;42.122;24.746;2022-11-15T12:05:30;99865.06;;;14.96;64.48
2675;BME280;1347;42.122;24.746;2022-11-15T12:08:04;99863.13;;;15.14;63.02
2675;BME280;1347;42.122;24.746;2022-11-15T12:10:39;99859.19;;;15.29;63.37
2675;BME280;1347;42.122;24.746;2022-11-15T12:13:15;99851.31;;;15.24;62.88
2675;BME280;1347;42.122;24.746;2022-11-15T12:15:47;99853.28;;;15.24;62.97
2675;BME280;1347;42.122;24.746;2022-11-15T12:18:19;99840.28;;;15.24;63.07
2675;BME280;1347;42.122;24.746;2022-11-15T12:20:52;99842.22;;;15.09;62.52
2675;BME280;1347;42.122;24.746;2022-11-15T12:23:24;99830.75;;;14.93;63.12
2675;BME280;1347;42.122;24.746;2022-11-15T12:25:57;99837.06;;;15.01;63.38
2675;BME280;1347;42.122;24.746;2022-11-15T12:28:33;99821.72;;;15.14;63.55
2675;BME280;1347;42.122;24.746;2022-11-15T12:31:04;99828.03;;;15.15;62.74
2675;BME280;1347;42.122;24.746;2022-11-15T12:33:41;99820.53;;;15.04;63.57
2675;BME280;1347;42.122;24.746;2022-11-15T12:36:10;99822.75;;;14.60;64.45
2675;BME280;1347;42.122;24.746;2022-11-15T12:38:56;99819.09;;;14.38;65.88
2675;BME280;1347;42.122;24.746;2022-11-15T12:41:26;99815.63;;;14.45;65.65
2675;BME280;1347;42.122;24.746;2022-11-15T12:43:54;99823.50;;;14.43;65.38
2675;BME280;1347;42.122;24.746;2022-11-15T12:46:58;99812.88;;;14.45;65.70
2675;BME280;1347;42.122;24.746;2022-11-15T12:49:42;99813.97;;;14.33;65.58
2675;BME280;1347;42.122;24.746;2022-11-15T12:52:10;99798.22;;;14.33;66.58
2675;BME280;1347;42.122;24.746;2022-11-15T12:54:58;99802.91;;;14.29;66.69
2675;BME280;1347;42.122;24.746;2022-11-15T12:57:37;99804.50;;;14.30;66.40
2675;BME280;1347;42.122;24.746;2022-11-15T13:03:27;99788.22;;;14.08;66.73
2675;BME280;1347;42.122;24.746;2022-11-15T13:06:08;99781.09;;;13.99;67.75
2675;BME280;1347;42.122;24.746;2022-11-15T13:08:44;99776.75;;;13.98;67.99
2675;BME280;1347;42.122;24.746;2022-11-15T13:11:48;99779.50;;;13.95;68.45
2675;BME280;1347;42.122;24.746;2022-11-15T13:14:44;99779.50;;;13.91;68.43
2675;BME280;1347;42.122;24.746;2022-11-15T13:17:30;99775.94;;;13.91;68.29
2675;BME280;1347;42.122;24.746;2022-11-15T13:20:07;99774.03;;;14.02;68.37
2675;BME280;1347;42.122;24.746;2022-11-15T13:22:42;99774.38;;;13.97;67.98
2675;BME280;1347;42.122;24.746;2022-11-15T13:28:32;99767.66;;;13.84;68.95
2675;BME280;1347;42.122;24.746;2022-11-15T13:31:02;99765.63;;;13.77;69.36